Time;durP1;ratioP1;P1;durP2;ratioP2;P2;SDS_P1;SDS_P2;PMS_P1;PMS_P2;Temp;Humidity;BMP_temperature;BMP_pressure;BME280_temperature;BME280_humidity;BME280_pressure;Samples;Min_cycle;Max_cycle;Signal;HPM_P1;HPM_P2
2022/03/25 00:02:16;;;;;;;47.87;29.23;;;5.60;99.90;;;;;;5111054;28;20500;-88
2022/03/25 00:04:52;;;;;;;39.93;25.57;;;5.60;99.90;;;;;;5097954;28;20415;-88
2022/03/25 00:07:18;;;;;;;46.07;27.97;;;5.50;99.90;;;;;;5099394;28;20156;-90
2022/03/25 00:09:46;;;;;;;45.90;30.30;;;5.40;99.90;;;;;;5098538;28;20962;-90
2022/03/25 00:12:11;;;;;;;46.23;28.07;;;5.30;99.90;;;;;;5098850;28;20176;-89
2022/03/25 00:14:38;;;;;;;44.17;27.60;;;5.40;99.90;;;;;;5097423;28;20418;-89
2022/03/25 00:17:03;;;;;;;45.50;27.83;;;5.40;99.90;;;;;;5098769;28;20180;-89
2022/03/25 00:19:29;;;;;;;46.20;28.80;;;5.50;99.90;;;;;;5098768;28;20441;-89
2022/03/25 00:21:54;;;;;;;38.87;27.07;;;5.50;99.90;;;;;;5097346;28;20201;-89
2022/03/25 00:24:20;;;;;;;44.33;27.47;;;5.50;99.90;;;;;;5096883;28;20173;-89
2022/03/25 00:26:46;;;;;;;44.47;27.87;;;5.50;99.90;;;;;;5098247;28;20182;-89
2022/03/25 00:29:13;;;;;;;41.73;25.47;;;5.40;99.90;;;;;;5097556;28;20238;-89
2022/03/25 00:31:39;;;;;;;41.50;26.30;;;5.30;99.90;;;;;;5096985;28;20625;-89
2022/03/25 00:34:04;;;;;;;41.30;25.97;;;5.40;99.90;;;;;;5096905;28;20419;-89
2022/03/25 00:36:29;;;;;;;44.43;26.97;;;5.30;99.90;;;;;;5098594;28;20178;-88
2022/03/25 00:38:55;;;;;;;43.70;29.33;;;5.30;99.90;;;;;;5097898;28;20635;-90
2022/03/25 00:41:23;;;;;;;38.00;26.07;;;5.30;99.90;;;;;;5099728;28;20731;-90
2022/03/25 00:43:49;;;;;;;37.77;24.40;;;5.20;99.90;;;;;;5101556;28;20172;-90
2022/03/25 00:46:15;;;;;;;35.23;26.50;;;5.20;99.90;;;;;;5098265;28;20460;-89
2022/03/25 00:48:42;;;;;;;39.47;26.23;;;5.10;99.90;;;;;;5097132;28;20203;-90
2022/03/25 00:51:09;;;;;;;41.33;25.37;;;5.10;99.90;;;;;;5096524;28;20477;-89
2022/03/25 00:53:35;;;;;;;41.87;25.50;;;5.10;99.90;;;;;;5096968;28;20467;-90
2022/03/25 00:56:01;;;;;;;42.07;26.43;;;5.00;99.90;;;;;;5096406;28;20426;-90
2022/03/25 00:58:27;;;;;;;38.70;24.80;;;4.90;99.90;;;;;;5097424;28;20176;-90
2022/03/25 01:00:53;;;;;;;42.10;26.87;;;4.90;99.90;;;;;;5095817;28;20466;-88
2022/03/25 01:03:18;;;;;;;43.37;27.90;;;5.00;99.90;;;;;;5096074;28;20468;-89
2022/03/25 01:05:44;;;;;;;41.70;26.37;;;5.00;99.90;;;;;;5096314;28;20648;-89
2022/03/25 01:08:11;;;;;;;39.47;27.37;;;4.90;99.90;;;;;;5099741;28;20178;-90
2022/03/25 01:10:37;;;;;;;39.17;24.33;;;5.00;99.90;;;;;;5096074;28;20168;-89
2022/03/25 01:13:03;;;;;;;40.83;26.53;;;4.90;99.90;;;;;;5095026;28;20936;-87
2022/03/25 01:15:29;;;;;;;39.00;25.20;;;4.80;99.90;;;;;;5095234;28;20184;-87
2022/03/25 01:17:54;;;;;;;48.73;29.20;;;4.80;99.90;;;;;;5096132;28;20410;-88
2022/03/25 01:20:20;;;;;;;36.33;25.87;;;4.90;99.90;;;;;;5095798;28;20411;-88
2022/03/25 01:22:46;;;;;;;44.60;25.63;;;4.80;99.90;;;;;;5095419;28;20176;-87
2022/03/25 01:25:11;;;;;;;40.10;26.57;;;4.80;99.90;;;;;;5094582;28;20175;-89
2022/03/25 01:27:37;;;;;;;41.23;27.67;;;4.60;99.90;;;;;;5096720;28;20204;-88
2022/03/25 01:30:04;;;;;;;44.10;28.00;;;4.60;99.90;;;;;;5095431;28;20520;-87
2022/03/25 01:32:30;;;;;;;41.27;26.00;;;4.80;99.90;;;;;;5095428;28;20430;-88
2022/03/25 01:34:55;;;;;;;45.00;27.20;;;4.90;99.90;;;;;;5096430;28;20415;-88
2022/03/25 01:37:25;;;;;;;36.97;25.70;;;5.00;99.90;;;;;;5094911;28;20191;-89
2022/03/25 01:39:51;;;;;;;42.43;26.20;;;4.90;99.90;;;;;;5094956;28;20527;-87
2022/03/25 01:42:16;;;;;;;38.27;23.87;;;4.80;99.90;;;;;;5095163;28;20565;-88
2022/03/25 01:44:42;;;;;;;48.20;29.20;;;4.70;99.90;;;;;;5096391;28;20461;-88
2022/03/25 01:47:09;;;;;;;35.90;24.80;;;4.60;99.90;;;;;;5095194;28;20180;-89
2022/03/25 01:49:35;;;;;;;38.00;25.63;;;4.60;99.90;;;;;;5094955;28;20172;-88
2022/03/25 01:52:03;;;;;;;36.47;23.20;;;4.60;99.90;;;;;;5094889;28;20467;-89
2022/03/25 01:54:34;;;;;;;40.30;24.53;;;4.60;99.90;;;;;;5094804;28;20759;-89
2022/03/25 01:57:06;;;;;;;36.83;23.53;;;4.60;99.90;;;;;;5094937;28;20429;-89
2022/03/25 01:59:33;;;;;;;35.53;25.50;;;4.60;99.90;;;;;;5094925;28;20454;-89
2022/03/25 02:02:00;;;;;;;31.47;22.50;;;4.60;99.90;;;;;;5094938;28;20472;-90
2022/03/25 02:04:26;;;;;;;32.40;23.53;;;4.50;99.90;;;;;;5078354;28;20890;-89
2022/03/25 02:06:52;;;;;;;37.40;25.17;;;4.50;99.90;;;;;;5094979;28;20454;-89
2022/03/25 02:09:17;;;;;;;38.17;24.50;;;4.40;99.90;;;;;;5095797;28;20517;-91
2022/03/25 02:11:43;;;;;;;31.70;23.83;;;4.40;99.90;;;;;;5094782;28;20520;-89
2022/03/25 02:14:09;;;;;;;41.80;25.10;;;4.40;99.90;;;;;;5094821;28;20176;-90
2022/03/25 02:16:39;;;;;;;36.83;23.60;;;4.30;99.90;;;;;;5094849;28;20465;-90
2022/03/25 02:19:05;;;;;;;35.47;24.33;;;4.30;99.90;;;;;;5095896;28;20956;-90
2022/03/25 02:21:41;;;;;;;36.00;24.03;;;4.20;99.90;;;;;;5095916;28;20494;-89
2022/03/25 02:24:08;;;;;;;34.80;24.27;;;4.20;99.90;;;;;;5094987;28;20934;-90
2022/03/25 02:26:36;;;;;;;43.50;24.23;;;4.20;99.90;;;;;;5094614;28;20430;-91
2022/03/25 02:29:03;;;;;;;39.53;23.80;;;4.20;99.90;;;;;;5094576;28;20533;-88
2022/03/25 02:31:28;;;;;;;41.37;26.13;;;4.10;99.90;;;;;;5094376;28;20418;-89
2022/03/25 02:34:00;;;;;;;35.97;22.80;;;4.10;99.90;;;;;;5095704;28;20422;-89
2022/03/25 02:36:26;;;;;;;35.27;23.17;;;4.00;99.90;;;;;;5096329;28;20534;-90
2022/03/25 02:38:51;;;;;;;44.23;25.03;;;4.00;99.90;;;;;;5094318;28;20419;-90
2022/03/25 02:41:17;;;;;;;37.93;25.50;;;4.00;99.90;;;;;;5094131;28;20203;-89
2022/03/25 02:43:43;;;;;;;39.10;25.27;;;4.00;99.90;;;;;;5093741;28;20259;-88
2022/03/25 02:46:14;;;;;;;43.87;25.47;;;4.00;99.90;;;;;;5094624;28;20239;-87
2022/03/25 02:48:40;;;;;;;43.03;26.30;;;3.90;99.90;;;;;;5093237;28;20164;-87
2022/03/25 02:51:05;;;;;;;47.10;24.63;;;3.90;99.90;;;;;;5094426;28;20498;-87
2022/03/25 02:53:32;;;;;;;36.97;23.20;;;3.90;99.90;;;;;;5093211;28;20168;-87
2022/03/25 02:55:58;;;;;;;37.87;25.67;;;3.80;99.90;;;;;;5093403;28;20176;-87
2022/03/25 02:58:24;;;;;;;33.33;23.80;;;3.90;99.90;;;;;;5093182;28;20421;-87
2022/03/25 03:00:49;;;;;;;38.70;25.20;;;3.80;99.90;;;;;;5093315;28;20457;-87
2022/03/25 03:03:15;;;;;;;37.13;23.47;;;3.80;99.90;;;;;;5093532;28;20172;-87
2022/03/25 03:05:42;;;;;;;33.33;21.90;;;3.90;99.90;;;;;;5093266;28;20182;-86
2022/03/25 03:08:10;;;;;;;38.77;24.83;;;3.80;99.90;;;;;;5092907;28;20438;-87
2022/03/25 03:10:35;;;;;;;36.73;23.57;;;3.80;99.90;;;;;;5092619;28;20559;-85
2022/03/25 03:13:02;;;;;;;41.90;25.50;;;3.70;99.90;;;;;;5092908;28;20423;-87
2022/03/25 03:15:28;;;;;;;46.17;26.70;;;3.70;99.90;;;;;;5092941;28;20173;-87
2022/03/25 03:17:54;;;;;;;39.40;23.47;;;3.60;99.90;;;;;;5092958;28;20512;-86
2022/03/25 03:20:20;;;;;;;40.03;23.80;;;3.60;99.90;;;;;;5093984;28;20176;-87
2022/03/25 03:22:47;;;;;;;43.43;25.90;;;3.50;99.90;;;;;;5092674;28;20198;-86
2022/03/25 03:25:13;;;;;;;35.13;24.07;;;3.50;99.90;;;;;;5092901;28;20414;-86
2022/03/25 03:27:39;;;;;;;40.23;25.13;;;3.60;99.90;;;;;;5076532;28;20442;-87
2022/03/25 03:30:06;;;;;;;33.73;22.90;;;3.50;99.90;;;;;;5093526;28;20172;-87
2022/03/25 03:32:32;;;;;;;36.50;23.07;;;3.40;99.90;;;;;;5093808;28;20418;-87
2022/03/25 03:34:58;;;;;;;39.57;24.93;;;3.40;99.90;;;;;;5092850;28;20417;-86
2022/03/25 03:37:25;;;;;;;38.23;24.70;;;3.40;99.90;;;;;;5092476;28;20180;-86
2022/03/25 03:39:51;;;;;;;44.57;26.87;;;3.40;99.90;;;;;;5092768;28;20415;-87
2022/03/25 03:42:17;;;;;;;36.40;25.20;;;3.30;99.90;;;;;;5093820;28;20466;-87
2022/03/25 03:44:43;;;;;;;36.70;23.90;;;3.40;99.90;;;;;;5092770;28;20423;-87
2022/03/25 03:47:10;;;;;;;35.30;24.80;;;3.20;99.90;;;;;;5076137;28;20543;-87
2022/03/25 03:49:36;;;;;;;34.47;24.80;;;3.30;99.90;;;;;;5094032;28;20406;-88
2022/03/25 03:52:04;;;;;;;39.07;24.17;;;3.20;99.90;;;;;;5093769;28;20450;-88
2022/03/25 03:54:30;;;;;;;37.77;23.07;;;3.20;99.90;;;;;;5092534;28;20432;-88
2022/03/25 03:56:55;;;;;;;38.40;24.90;;;3.10;99.90;;;;;;5092759;28;20487;-89
2022/03/25 03:59:21;;;;;;;37.23;24.20;;;3.20;99.90;;;;;;5094678;28;20245;-90
2022/03/25 04:01:49;;;;;;;35.27;23.60;;;3.30;99.90;;;;;;5093306;28;20260;-90
2022/03/25 04:04:17;;;;;;;41.73;24.10;;;3.20;99.90;;;;;;5094362;28;20639;-89
2022/03/25 04:06:44;;;;;;;42.83;27.40;;;3.20;99.90;;;;;;5093043;28;20422;-88
2022/03/25 04:09:10;;;;;;;34.30;22.27;;;3.20;99.90;;;;;;5092906;28;20410;-89
2022/03/25 04:11:38;;;;;;;36.83;22.67;;;3.10;99.90;;;;;;5093041;28;20949;-90
2022/03/25 04:14:04;;;;;;;32.70;23.00;;;3.00;99.90;;;;;;5093228;28;20442;-90
2022/03/25 04:16:30;;;;;;;35.60;24.90;;;3.00;99.90;;;;;;5093899;28;20433;-90
2022/03/25 04:18:56;;;;;;;37.57;22.20;;;3.00;99.90;;;;;;5093791;28;20427;-90
2022/03/25 04:21:22;;;;;;;30.23;22.03;;;3.00;99.90;;;;;;5092894;28;20291;-88
2022/03/25 04:23:48;;;;;;;35.97;23.13;;;3.00;99.90;;;;;;5093075;28;20465;-89
2022/03/25 04:26:13;;;;;;;45.63;25.47;;;3.10;99.90;;;;;;5093777;28;20173;-92
2022/03/25 04:28:39;;;;;;;33.40;22.63;;;3.00;99.90;;;;;;5093663;28;20241;-90
2022/03/25 04:31:05;;;;;;;36.70;22.60;;;3.00;99.90;;;;;;5098019;28;20640;-91
2022/03/25 04:33:33;;;;;;;36.23;24.00;;;3.00;99.90;;;;;;5096691;28;20168;-91
2022/03/25 04:35:58;;;;;;;36.27;23.60;;;2.90;99.90;;;;;;5095650;28;20414;-92
2022/03/25 04:38:24;;;;;;;33.80;22.73;;;2.90;99.90;;;;;;5096302;28;20398;-90
2022/03/25 04:40:50;;;;;;;33.13;24.43;;;2.90;99.90;;;;;;5095706;28;20263;-89
2022/03/25 04:43:15;;;;;;;36.87;24.77;;;3.00;99.90;;;;;;5097943;28;20543;-92
2022/03/25 04:45:41;;;;;;;32.37;22.17;;;2.90;99.90;;;;;;5095047;28;20558;-91
2022/03/25 04:48:10;;;;;;;35.83;23.17;;;2.90;99.90;;;;;;5094446;28;20578;-91
2022/03/25 04:50:38;;;;;;;41.60;25.70;;;3.00;99.90;;;;;;5095827;28;20454;-91
2022/03/25 04:53:04;;;;;;;33.33;22.90;;;2.90;99.90;;;;;;5092780;28;20415;-90
2022/03/25 04:55:30;;;;;;;39.93;23.67;;;3.00;99.90;;;;;;5092734;28;20418;-89
2022/03/25 04:57:56;;;;;;;40.00;23.53;;;2.90;99.90;;;;;;5092661;28;20511;-89
2022/03/25 05:00:22;;;;;;;39.03;22.67;;;2.80;99.90;;;;;;5093851;28;20438;-89
2022/03/25 05:02:50;;;;;;;34.60;23.40;;;2.90;99.90;;;;;;5096250;28;20180;-89
2022/03/25 05:05:16;;;;;;;37.03;23.23;;;2.80;99.90;;;;;;5096067;28;20525;-90
2022/03/25 05:07:46;;;;;;;37.77;24.57;;;2.70;99.90;;;;;;5097065;28;20426;-89
2022/03/25 05:10:13;;;;;;;36.10;24.43;;;2.80;99.90;;;;;;5096050;28;20277;-90
2022/03/25 05:12:39;;;;;;;36.27;22.93;;;2.70;99.90;;;;;;5097229;28;20414;-90
2022/03/25 05:15:06;;;;;;;34.07;21.43;;;2.80;99.90;;;;;;5097076;28;20776;-89
2022/03/25 05:17:32;;;;;;;36.40;22.77;;;2.80;99.90;;;;;;5095889;28;20437;-90
2022/03/25 05:19:58;;;;;;;32.70;22.00;;;2.80;99.90;;;;;;5096674;28;20848;-92
2022/03/25 05:22:23;;;;;;;41.73;23.20;;;2.80;99.90;;;;;;5097143;28;20464;-89
2022/03/25 05:24:49;;;;;;;36.03;24.50;;;2.70;99.90;;;;;;5095013;28;20229;-89
2022/03/25 05:27:14;;;;;;;38.03;22.03;;;2.80;99.90;;;;;;5095373;28;20221;-89
2022/03/25 05:29:40;;;;;;;39.73;24.07;;;2.80;99.90;;;;;;5095468;28;20648;-89
2022/03/25 05:32:06;;;;;;;35.73;23.00;;;2.70;99.90;;;;;;5095299;28;20179;-90
2022/03/25 05:34:32;;;;;;;35.20;24.30;;;2.80;99.90;;;;;;5095064;28;20164;-89
2022/03/25 05:36:57;;;;;;;44.50;25.10;;;2.80;99.90;;;;;;5095206;28;20411;-88
2022/03/25 05:39:23;;;;;;;38.20;24.80;;;2.90;99.90;;;;;;5096068;28;20219;-89
2022/03/25 05:41:48;;;;;;;35.73;24.80;;;3.00;99.90;;;;;;5095320;28;20356;-89
2022/03/25 05:44:14;;;;;;;34.30;22.97;;;3.00;99.90;;;;;;5095144;28;20173;-89
2022/03/25 05:46:39;;;;;;;43.33;23.70;;;3.00;99.90;;;;;;5094755;28;20195;-88
2022/03/25 05:49:05;;;;;;;40.70;24.10;;;3.00;99.90;;;;;;5096043;28;20507;-89
2022/03/25 05:51:31;;;;;;;39.80;23.70;;;3.10;99.90;;;;;;5094749;28;20581;-89
2022/03/25 05:53:57;;;;;;;36.97;24.07;;;3.20;99.90;;;;;;5094647;28;20172;-90
2022/03/25 05:56:22;;;;;;;38.27;24.17;;;3.10;99.90;;;;;;5096362;28;20172;-89
2022/03/25 05:58:48;;;;;;;33.00;20.53;;;3.20;99.90;;;;;;5095164;28;20411;-90
2022/03/25 06:01:14;;;;;;;39.63;24.33;;;3.40;99.90;;;;;;5095299;28;20265;-90
2022/03/25 06:03:39;;;;;;;35.47;22.97;;;3.50;99.90;;;;;;5095419;28;20169;-89
2022/03/25 06:06:06;;;;;;;40.80;24.20;;;3.70;99.90;;;;;;5094655;28;20211;-88
2022/03/25 06:08:32;;;;;;;35.13;22.77;;;3.90;99.90;;;;;;5094288;28;20172;-89
2022/03/25 06:10:59;;;;;;;37.47;23.40;;;4.00;99.90;;;;;;5094502;28;20450;-88
2022/03/25 06:13:28;;;;;;;35.77;23.77;;;4.00;99.90;;;;;;5094523;28;20418;-88
2022/03/25 06:15:54;;;;;;;32.73;22.20;;;4.00;99.90;;;;;;5094661;28;20431;-88
2022/03/25 06:18:21;;;;;;;34.50;22.50;;;4.10;99.90;;;;;;5095710;28;20446;-89
2022/03/25 06:20:47;;;;;;;32.10;20.20;;;4.20;99.90;;;;;;5095703;28;20526;-88
2022/03/25 06:23:13;;;;;;;33.03;21.20;;;4.30;99.90;;;;;;5094306;28;20498;-88
2022/03/25 06:25:41;;;;;;;35.47;22.90;;;4.50;99.90;;;;;;5094955;28;20629;-89
2022/03/25 06:28:07;;;;;;;32.13;22.57;;;4.60;99.90;;;;;;5094654;28;20426;-91
2022/03/25 06:30:36;;;;;;;37.57;23.57;;;4.80;99.90;;;;;;5095338;28;20477;-90
2022/03/25 06:33:07;;;;;;;36.47;24.47;;;5.10;99.90;;;;;;5094960;28;20493;-90
2022/03/25 06:35:33;;;;;;;34.63;23.07;;;5.50;99.90;;;;;;5095420;28;20471;-90
2022/03/25 06:37:58;;;;;;;38.23;24.10;;;6.10;99.90;;;;;;5096060;28;20426;-91
2022/03/25 06:40:25;;;;;;;36.97;25.20;;;6.80;1.00;;;;;;5097281;28;20442;-92
2022/03/25 06:42:53;;;;;;;31.23;23.90;;;7.40;1.00;;;;;;5097507;28;20182;-92
2022/03/25 06:45:19;;;;;;;33.10;22.87;;;8.20;1.00;;;;;;5098440;28;20411;-93
2022/03/25 06:47:45;;;;;;;32.23;22.53;;;8.70;99.90;;;;;;5104948;28;20971;-91
2022/03/25 06:50:15;;;;;;;31.30;23.07;;;9.20;99.90;;;;;;5102039;28;20186;-91
2022/03/25 06:52:41;;;;;;;29.80;20.60;;;9.50;99.90;;;;;;5100123;28;20278;-90
2022/03/25 06:55:13;;;;;;;35.10;23.60;;;9.80;99.90;;;;;;5102254;28;20471;-92
2022/03/25 06:57:39;;;;;;;31.50;22.40;;;10.10;1.00;;;;;;5102340;28;20419;-93
2022/03/25 07:00:15;;;;;;;39.93;23.73;;;10.50;1.00;;;;;;5102175;28;20419;-94
2022/03/25 07:02:42;;;;;;;30.27;22.07;;;10.80;1.00;;;;;;5103229;28;20443;-92
2022/03/25 07:05:10;;;;;;;33.80;23.23;;;11.10;99.90;;;;;;5106092;28;20424;-92
2022/03/25 07:07:41;;;;;;;32.13;23.40;;;11.30;99.90;;;;;;5104534;28;20487;-91
2022/03/25 07:10:13;;;;;;;32.67;22.60;;;11.40;99.90;;;;;;5105199;28;20423;-90
2022/03/25 07:12:44;;;;;;;35.77;24.90;;;11.70;99.90;;;;;;5105067;28;20468;-91
2022/03/25 07:15:11;;;;;;;33.80;25.07;;;11.40;99.90;;;;;;5102043;28;21020;-94
2022/03/25 07:17:41;;;;;;;35.27;23.80;;;11.90;99.90;;;;;;5099808;28;20442;-89
2022/03/25 07:20:08;;;;;;;35.93;24.23;;;13.30;99.90;;;;;;5100111;28;20420;-92
2022/03/25 07:22:37;;;;;;;35.50;25.97;;;12.70;99.90;;;;;;5101202;28;20475;-91
2022/03/25 07:25:06;;;;;;;35.27;26.70;;;12.90;99.90;;;;;;5101972;28;20483;-92
2022/03/25 07:27:38;;;;;;;34.73;24.93;;;13.00;99.90;;;;;;5100329;28;20429;-91
2022/03/25 07:30:08;;;;;;;37.37;28.37;;;13.10;99.90;;;;;;5101527;28;20484;-92
2022/03/25 07:32:36;;;;;;;38.93;29.60;;;13.50;99.90;;;;;;5101529;28;20416;-91
2022/03/25 07:35:06;;;;;;;38.63;28.70;;;13.80;99.90;;;;;;5102109;28;20415;-92
2022/03/25 07:37:36;;;;;;;40.53;29.13;;;14.00;99.90;;;;;;5099632;28;20406;-94
2022/03/25 07:40:08;;;;;;;37.10;28.30;;;14.40;99.90;;;;;;5099608;28;20540;-90
2022/03/25 07:42:40;;;;;;;40.33;31.70;;;14.30;99.90;;;;;;5100284;28;20477;-89
2022/03/25 07:45:08;;;;;;;43.03;31.43;;;14.50;99.90;;;;;;5099121;28;20445;-91
2022/03/25 07:47:44;;;;;;;44.10;31.03;;;14.50;99.90;;;;;;5100424;28;20489;-91
2022/03/25 07:50:18;;;;;;;46.00;33.57;;;14.80;99.90;;;;;;5099083;28;20425;-87
2022/03/25 07:52:45;;;;;;;44.57;32.73;;;15.10;99.90;;;;;;5097569;28;20472;-92
2022/03/25 07:55:11;;;;;;;41.00;32.63;;;15.50;99.90;;;;;;5097772;28;20421;-87
2022/03/25 07:57:38;;;;;;;45.37;32.10;;;15.30;99.90;;;;;;5099008;28;20423;-89
2022/03/25 08:00:13;;;;;;;44.93;32.33;;;15.90;99.90;;;;;;5098174;28;20173;-88
2022/03/25 08:02:40;;;;;;;43.00;32.40;;;15.80;99.00;;;;;;5102222;28;20419;-93
2022/03/25 08:05:09;;;;;;;40.80;33.37;;;15.90;94.60;;;;;;5094159;28;20422;-94
2022/03/25 08:08:02;;;;;;;42.47;31.93;;;16.20;90.50;;;;;;5094601;28;20479;-92
2022/03/25 08:10:29;;;;;;;45.63;34.77;;;16.60;86.10;;;;;;5090482;28;20441;-90
2022/03/25 08:12:56;;;;;;;41.40;32.53;;;16.90;80.00;;;;;;5092007;28;20466;-90
2022/03/25 08:15:23;;;;;;;37.90;31.80;;;17.00;63.70;;;;;;5093693;28;20424;-92
2022/03/25 08:17:50;;;;;;;43.03;33.20;;;17.10;61.50;;;;;;5092500;28;20569;-89
2022/03/25 08:20:20;;;;;;;37.70;31.20;;;17.20;56.30;;;;;;5092411;28;20425;-90
2022/03/25 08:22:47;;;;;;;43.90;35.30;;;17.20;51.60;;;;;;5093109;28;20421;-89
2022/03/25 08:28:00;;;;;;;40.50;34.90;;;18.40;31.30;;;;;;5093958;28;20421;-90
2022/03/25 08:30:27;;;;;;;48.37;37.07;;;18.30;34.10;;;;;;5092778;28;20501;-91
2022/03/25 08:32:52;;;;;;;44.97;34.30;;;18.70;30.80;;;;;;5092465;28;20434;-89
2022/03/25 08:35:19;;;;;;;47.57;37.77;;;18.90;25.90;;;;;;5093550;28;20414;-94
2022/03/25 08:37:44;;;;;;;42.40;34.47;;;19.00;34.10;;;;;;5095676;28;20179;-90
2022/03/25 08:40:10;;;;;;;40.70;34.30;;;19.30;20.40;;;;;;5095771;28;20504;-89
2022/03/25 08:42:36;;;;;;;39.97;35.73;;;19.30;17.60;;;;;;5097600;28;20175;-89
2022/03/25 08:45:02;;;;;;;50.93;36.67;;;19.60;15.80;;;;;;5096347;28;20448;-89
2022/03/25 08:47:27;;;;;;;44.63;35.00;;;20.20;13.00;;;;;;5097295;28;20498;-90
2022/03/25 08:49:53;;;;;;;43.50;36.30;;;20.30;12.30;;;;;;5096600;28;20192;-90
2022/03/25 08:52:21;;;;;;;50.10;36.27;;;20.80;10.60;;;;;;5094612;28;20293;-89
2022/03/25 08:54:49;;;;;;;39.13;34.83;;;20.40;2.20;;;;;;5096107;28;20421;-90
2022/03/25 08:57:18;;;;;;;45.67;37.53;;;21.00;6.40;;;;;;5095466;28;20434;-91
2022/03/25 08:59:43;;;;;;;46.80;38.40;;;21.70;7.10;;;;;;5095705;28;20933;-91
2022/03/25 09:02:09;;;;;;;42.97;37.50;;;21.40;1.00;;;;;;5095701;28;20426;-90
2022/03/25 09:04:35;;;;;;;47.60;41.17;;;21.20;1.00;;;;;;5095230;28;20203;-91
2022/03/25 09:07:00;;;;;;;43.70;38.07;;;22.10;1.00;;;;;;5096024;28;20183;-90
2022/03/25 09:09:29;;;;;;;44.00;38.83;;;22.00;1.00;;;;;;5093807;28;20209;-90
2022/03/25 09:11:55;;;;;;;49.43;41.20;;;22.10;1.00;;;;;;5123867;22;20254;-89
2022/03/25 09:14:21;;;;;;;47.40;39.07;;;21.60;1.00;;;;;;5074692;28;20490;-90
2022/03/25 09:16:47;;;;;;;45.00;39.00;;;21.40;1.00;;;;;;5074861;28;20201;-90
2022/03/25 09:19:13;;;;;;;44.60;38.80;;;22.40;1.00;;;;;;5075208;28;20294;-88
2022/03/25 09:21:39;;;;;;;47.80;39.53;;;22.60;1.00;;;;;;5076074;28;20261;-89
2022/03/25 09:24:10;;;;;;;44.20;39.50;;;22.00;1.00;;;;;;5076078;28;20180;-90
2022/03/25 09:26:36;;;;;;;48.80;39.90;;;22.30;1.00;;;;;;5075148;28;20522;-87
2022/03/25 09:29:02;;;;;;;44.00;39.07;;;22.00;1.00;;;;;;5075480;28;20511;-87
2022/03/25 09:31:27;;;;;;;46.63;41.40;;;22.50;1.00;;;;;;5075784;28;20216;-88
2022/03/25 09:35:08;;;;;;;48.93;39.10;;;22.40;1.00;;;;;;5074576;28;20426;-87
2022/03/25 09:36:39;;;;;;;53.40;42.00;;;22.60;1.00;;;;;;5074886;28;20184;-84
2022/03/25 09:39:05;;;;;;;50.20;42.90;;;22.30;1.00;;;;;;5071169;28;20420;-86
2022/03/25 09:41:31;;;;;;;47.17;39.80;;;22.60;1.00;;;;;;5072979;28;20165;-86
2022/03/25 09:43:57;;;;;;;45.97;38.40;;;23.30;1.00;;;;;;5073607;28;20434;-93
2022/03/25 09:46:25;;;;;;;44.47;38.53;;;23.40;1.00;;;;;;5074015;28;20519;-87
2022/03/25 09:48:50;;;;;;;45.73;40.10;;;23.40;1.00;;;;;;5074443;28;20419;-89
2022/03/25 09:51:16;;;;;;;43.70;38.87;;;23.40;1.00;;;;;;5074754;28;20465;-88
2022/03/25 09:53:43;;;;;;;29.67;23.07;;;23.90;1.00;;;;;;5073829;28;20180;-87
2022/03/25 09:56:09;;;;;;;40.10;30.20;;;24.10;1.00;;;;;;5073903;28;20173;-85
2022/03/25 09:58:35;;;;;;;44.07;34.13;;;24.40;1.00;;;;;;5075256;28;20442;-86
2022/03/25 10:01:01;;;;;;;32.53;28.37;;;24.10;1.00;;;;;;5073865;28;20183;-87
2022/03/25 10:03:33;;;;;;;40.70;33.07;;;24.20;1.00;;;;;;5076868;28;20177;-91
2022/03/25 10:06:04;;;;;;;38.93;31.87;;;23.60;1.00;;;;;;5077172;28;20179;-90
2022/03/25 10:08:31;;;;;;;32.47;28.83;;;23.60;1.00;;;;;;5075324;28;20450;-92
2022/03/25 10:11:16;;;;;;;37.07;29.47;;;23.50;1.00;;;;;;5074259;28;20477;-88
2022/03/25 10:13:41;;;;;;;36.63;27.17;;;23.90;1.00;;;;;;5075378;28;20532;-89
2022/03/25 10:16:28;;;;;;;30.93;25.17;;;23.90;1.00;;;;;;5073518;28;20795;-87
2022/03/25 10:18:56;;;;;;;27.97;25.00;;;23.60;1.00;;;;;;5073849;28;20212;-89
2022/03/25 10:21:22;;;;;;;26.53;21.77;;;23.80;1.00;;;;;;5073473;28;20522;-86
2022/03/25 10:23:47;;;;;;;26.13;21.40;;;24.20;1.00;;;;;;5073888;28;20415;-87
2022/03/25 10:26:13;;;;;;;28.93;24.50;;;24.70;1.00;;;;;;5074177;28;20427;-84
2022/03/25 10:28:44;;;;;;;28.13;21.70;;;24.10;1.00;;;;;;5074141;28;20194;-87
2022/03/25 10:31:11;;;;;;;31.20;24.00;;;24.30;1.00;;;;;;5072862;28;20212;-86
2022/03/25 10:33:54;;;;;;;28.93;23.10;;;24.30;1.00;;;;;;5073988;28;20440;-86
2022/03/25 10:36:24;;;;;;;27.63;24.73;;;24.50;1.00;;;;;;5073324;28;20411;-91
2022/03/25 10:39:04;;;;;;;29.37;23.60;;;24.20;1.00;;;;;;5073964;28;20906;-88
2022/03/25 10:41:38;;;;;;;29.80;22.77;;;24.40;1.00;;;;;;5073940;28;20418;-89
2022/03/25 10:44:05;;;;;;;30.60;24.40;;;24.50;1.00;;;;;;5074158;28;20541;-90
2022/03/25 10:46:42;;;;;;;29.30;24.20;;;24.30;1.00;;;;;;5073575;28;20506;-89
2022/03/25 10:49:08;;;;;;;31.03;24.17;;;24.60;1.00;;;;;;5072370;28;20449;-89
2022/03/25 10:51:35;;;;;;;24.93;20.73;;;24.80;1.00;;;;;;5073325;28;20467;-88
2022/03/25 10:54:09;;;;;;;33.73;26.20;;;24.70;1.00;;;;;;5073454;28;20408;-86
2022/03/25 10:56:47;;;;;;;22.80;20.17;;;24.60;1.00;;;;;;5073764;28;20946;-86
2022/03/25 10:59:27;;;;;;;27.87;22.70;;;24.40;1.00;;;;;;5072898;28;20411;-89
2022/03/25 11:02:06;;;;;;;24.87;19.47;;;24.10;1.00;;;;;;5072263;28;20423;-88
2022/03/25 11:04:33;;;;;;;25.67;20.53;;;24.60;1.00;;;;;;5074711;28;20407;-86
2022/03/25 11:07:01;;;;;;;26.50;20.00;;;24.90;1.00;;;;;;5074257;28;20499;-86
2022/03/25 11:09:27;;;;;;;32.07;22.47;;;25.40;1.00;;;;;;5073528;28;20419;-85
2022/03/25 11:11:54;;;;;;;26.70;22.07;;;25.10;1.00;;;;;;5073208;28;20478;-86
2022/03/25 11:14:21;;;;;;;28.83;19.87;;;25.10;1.00;;;;;;5072299;28;20447;-86
2022/03/25 11:16:55;;;;;;;25.20;19.43;;;24.80;1.00;;;;;;5073522;28;20423;-87
2022/03/25 11:19:21;;;;;;;24.90;21.57;;;25.10;1.00;;;;;;5075938;28;20806;-85
2022/03/25 11:21:48;;;;;;;21.70;18.20;;;25.20;1.00;;;;;;5073945;28;20473;-86
2022/03/25 11:24:33;;;;;;;20.77;18.80;;;25.30;1.00;;;;;;5072614;28;20781;-88
2022/03/25 11:27:26;;;;;;;22.70;19.20;;;24.40;1.00;;;;;;5073814;28;20403;-88
2022/03/25 11:29:55;;;;;;;18.27;16.07;;;25.30;1.00;;;;;;5074083;28;20764;-85
2022/03/25 11:32:22;;;;;;;21.03;17.20;;;25.30;1.00;;;;;;5073674;28;20584;-85
2022/03/25 11:34:53;;;;;;;20.73;18.30;;;24.70;1.00;;;;;;5074035;28;20416;-87
2022/03/25 11:37:28;;;;;;;22.20;18.70;;;24.60;1.00;;;;;;5072233;28;20830;-85
2022/03/25 11:40:12;;;;;;;23.33;19.07;;;25.20;1.00;;;;;;5073861;28;20786;-88
2022/03/25 11:42:46;;;;;;;20.63;18.53;;;25.30;1.00;;;;;;5073288;28;20422;-84
2022/03/25 11:45:21;;;;;;;24.13;18.97;;;25.00;1.00;;;;;;5076613;28;20507;-87
2022/03/25 11:47:59;;;;;;;27.73;23.70;;;24.80;1.00;;;;;;5077278;28;20410;-86
2022/03/25 11:50:46;;;;;;;30.10;24.30;;;24.60;1.00;;;;;;5078381;28;20417;-87
2022/03/25 11:53:11;;;;;;;28.10;23.07;;;25.00;1.00;;;;;;5077406;28;20518;-88
2022/03/25 11:56:09;;;;;;;29.47;22.33;;;25.40;1.00;;;;;;5076935;28;20849;-86
2022/03/25 11:58:37;;;;;;;26.47;22.87;;;25.10;1.00;;;;;;5077822;28;20165;-84
2022/03/25 12:01:17;;;;;;;26.17;22.10;;;25.70;1.00;;;;;;5076796;28;20518;-84
2022/03/25 12:03:49;;;;;;;25.33;22.47;;;25.50;1.00;;;;;;5074078;28;20776;-85
2022/03/25 12:06:15;;;;;;;23.90;21.40;;;24.90;1.00;;;;;;5072993;28;20477;-87
2022/03/25 12:09:05;;;;;;;26.43;23.53;;;24.60;1.00;;;;;;5072484;28;20407;-86
2022/03/25 12:11:51;;;;;;;30.43;21.67;;;22.90;1.00;;;;;;5076645;28;21076;-86
2022/03/25 12:14:31;;;;;;;25.50;22.97;;;24.60;1.00;;;;;;5076851;28;20465;-86
2022/03/25 12:17:02;;;;;;;25.33;21.83;;;23.80;1.00;;;;;;5076943;28;20705;-87
2022/03/25 12:19:28;;;;;;;24.33;20.90;;;24.80;1.00;;;;;;5075799;28;20434;-86
2022/03/25 12:22:25;;;;;;;23.30;20.47;;;24.90;1.00;;;;;;5076532;28;20407;-87
2022/03/25 12:24:55;;;;;;;24.77;22.17;;;25.40;1.00;;;;;;5076792;28;20238;-88
2022/03/25 12:27:23;;;;;;;24.67;21.90;;;25.00;1.00;;;;;;5075588;28;20987;-86
2022/03/25 12:29:57;;;;;;;23.50;18.73;;;25.20;1.00;;;;;;5075580;28;20461;-86
2022/03/25 12:32:25;;;;;;;24.37;19.50;;;25.50;1.00;;;;;;5075393;28;21046;-86
2022/03/25 12:35:02;;;;;;;27.73;21.23;;;25.30;1.00;;;;;;5076727;28;20748;-86
2022/03/25 12:37:31;;;;;;;27.20;21.97;;;25.30;1.00;;;;;;5076258;28;20482;-86
2022/03/25 12:40:09;;;;;;;23.40;21.10;;;24.80;1.00;;;;;;5075264;28;20403;-86
2022/03/25 12:42:34;;;;;;;23.80;20.77;;;24.80;1.00;;;;;;5075337;28;20417;-86
2022/03/25 12:45:00;;;;;;;22.17;19.67;;;24.70;1.00;;;;;;5075211;28;20927;-87